Terminal Aerodrome Forecast
Issued by NWS

Home | Current Version | Previous Version | Graphics & Text | Print | Product List | Glossary On
Versions: 1 2 3 4 5 6 7 8 9 10 11 12 13 14 15 16 17 18 19 20 21 22 23 24 25 26 27
512
FTUS43 KABR 222202 AAA
TAFPIR
TAF AMD
KPIR 222202Z 2222/2318 29008KT P6SM BKN025
      TEMPO 2222/2301 OVC012
     FM230100 28007KT P6SM SCT150
     FM230700 VRB03KT P6SM SCT070
     FM231300 11007KT P6SM BKN080
     FM231700 11011KT P6SM OVC060=

USA.gov is the U.S. government's official web portal to all federal, state and local government web resources and services.